createdAt,value
2023-12-18T00:00:15.980Z,31.94
2023-12-18T00:01:20.887Z,31.95
2023-12-18T00:02:24.245Z,31.95
2023-12-18T00:03:27.590Z,31.95
2023-12-18T00:04:30.978Z,31.94
2023-12-18T00:05:35.845Z,31.98
2023-12-18T00:06:39.377Z,31.98
2023-12-18T00:07:43.560Z,31.96
2023-12-18T00:08:47.377Z,31.96
2023-12-18T00:09:50.728Z,31.97
2023-12-18T00:10:54.022Z,31.98
2023-12-18T00:11:58.760Z,31.99
2023-12-18T00:13:03.686Z,31.99
2023-12-18T00:14:06.975Z,31.96
2023-12-18T00:15:10.427Z,31.98
2023-12-18T00:16:13.729Z,31.99
2023-12-18T00:17:16.936Z,32.01
2023-12-18T00:18:20.455Z,32.03
2023-12-18T00:19:24.443Z,32.02
2023-12-18T00:20:27.746Z,32.03
2023-12-18T00:21:31.016Z,32
2023-12-18T00:22:34.360Z,32.03
2023-12-18T00:23:37.669Z,32.02
2023-12-18T00:24:40.985Z,32.02
2023-12-18T00:25:44.391Z,32.04
2023-12-18T00:26:47.693Z,32.06
2023-12-18T00:27:51.710Z,32.06
2023-12-18T00:28:55.920Z,32.04
2023-12-18T00:29:59.292Z,32.03
2023-12-18T00:31:02.847Z,32.04
2023-12-18T00:32:06.330Z,32.04
2023-12-18T00:33:10.010Z,32.05
2023-12-18T00:34:13.920Z,32.04
2023-12-18T00:35:18.739Z,32.05
2023-12-18T00:36:23.689Z,32.03
2023-12-18T00:37:26.995Z,31.99
2023-12-18T00:38:30.168Z,32.01
2023-12-18T00:39:33.461Z,32.03
2023-12-18T00:40:36.865Z,32.05
2023-12-18T00:41:41.676Z,32.05
2023-12-18T00:42:44.955Z,32.05
2023-12-18T00:43:51.956Z,32.04
2023-12-18T00:44:55.328Z,32.01
2023-12-18T00:45:58.692Z,31.99
2023-12-18T00:47:01.957Z,32.02
2023-12-18T00:48:05.466Z,32.02
2023-12-18T00:49:09.269Z,32.06
2023-12-18T00:50:13.184Z,32.08
2023-12-18T00:51:16.575Z,32.08
2023-12-18T00:52:19.979Z,32.08
2023-12-18T00:53:23.210Z,32.08
2023-12-18T00:54:26.540Z,32.1
2023-12-18T00:55:29.870Z,32.08
2023-12-18T00:56:33.235Z,32.09
2023-12-18T00:57:36.602Z,32.1
2023-12-18T00:58:39.990Z,32.09
2023-12-18T00:59:43.251Z,32.09
2023-12-18T01:00:48.147Z,32.11
2023-12-18T01:01:51.609Z,32.08
2023-12-18T01:02:54.987Z,32.08
2023-12-18T01:03:59.843Z,32.09
2023-12-18T01:05:03.426Z,32.08
2023-12-18T01:06:06.936Z,32.08
2023-12-18T01:07:10.342Z,32.09
2023-12-18T01:08:15.045Z,32.11
2023-12-18T01:09:18.330Z,32.12
2023-12-18T01:10:21.786Z,32.14
2023-12-18T01:11:25.046Z,32.14
2023-12-18T01:12:28.369Z,32.14
2023-12-18T01:13:31.833Z,32.12
2023-12-18T01:14:35.222Z,32.12
2023-12-18T01:15:38.776Z,32.11
2023-12-18T01:16:42.125Z,32.13
2023-12-18T01:17:46.079Z,32.15
2023-12-18T01:18:50.342Z,32.13
2023-12-18T01:19:54.249Z,32.11
2023-12-18T01:20:57.665Z,32.14
2023-12-18T01:22:00.922Z,32.14
2023-12-18T01:23:05.498Z,32.14
2023-12-18T01:24:08.787Z,32.15
2023-12-18T01:25:13.592Z,32.14
2023-12-18T01:26:16.718Z,32.11
2023-12-18T01:27:21.485Z,32.11
2023-12-18T01:28:24.630Z,32.13
2023-12-18T01:29:27.789Z,32.13
2023-12-18T01:30:31.201Z,32.17
2023-12-18T01:31:34.739Z,32.18
2023-12-18T01:32:38.248Z,32.16
2023-12-18T01:33:42.021Z,32.14
2023-12-18T01:34:46.964Z,32.15
2023-12-18T01:35:50.214Z,32.14
2023-12-18T01:36:53.465Z,32.16
2023-12-18T01:37:58.276Z,32.16
2023-12-18T01:39:01.558Z,32.15
2023-12-18T01:40:06.893Z,32.15
2023-12-18T01:41:10.178Z,32.15
2023-12-18T01:42:13.390Z,32.15
2023-12-18T01:43:18.277Z,32.16
2023-12-18T01:44:21.546Z,32.15
2023-12-18T01:45:25.003Z,32.13
2023-12-18T01:46:28.210Z,32.15
2023-12-18T01:47:31.410Z,32.16
2023-12-18T01:48:36.733Z,32.19
2023-12-18T01:49:42.103Z,32.16
2023-12-18T01:50:45.531Z,32.15
2023-12-18T01:51:48.898Z,32.19
2023-12-18T01:52:52.173Z,32.23
2023-12-18T01:53:55.476Z,32.22
2023-12-18T01:54:58.790Z,32.22
2023-12-18T01:56:02.118Z,32.19
2023-12-18T01:57:05.392Z,32.2
2023-12-18T01:58:08.868Z,32.18
2023-12-18T01:59:12.240Z,32.2
2023-12-18T02:00:15.587Z,32.21
2023-12-18T02:01:19.097Z,32.2
2023-12-18T02:02:22.600Z,32.23
2023-12-18T02:03:26.165Z,32.22
2023-12-18T02:04:29.597Z,32.21
2023-12-18T02:05:33.052Z,32.21
2023-12-18T02:06:36.501Z,32.27
2023-12-18T02:07:40.528Z,32.28
2023-12-18T02:08:44.393Z,32.38
2023-12-18T02:09:47.680Z,32.38
2023-12-18T02:10:52.970Z,32.33
2023-12-18T02:11:56.187Z,32.37
2023-12-18T02:12:59.411Z,32.38
2023-12-18T02:14:02.608Z,32.34
2023-12-18T02:15:06.047Z,32.31
2023-12-18T02:16:09.456Z,32.26
2023-12-18T02:17:12.743Z,32.27
2023-12-18T02:18:16.306Z,32.31
2023-12-18T02:19:20.009Z,32.3
2023-12-18T02:20:23.380Z,32.32
2023-12-18T02:21:26.841Z,32.33
2023-12-18T02:22:30.270Z,32.31
2023-12-18T02:23:33.563Z,32.32
2023-12-18T02:24:37.346Z,32.31
2023-12-18T02:25:41.575Z,32.31
2023-12-18T02:26:44.864Z,32.29
2023-12-18T02:27:48.234Z,32.28
2023-12-18T02:28:51.646Z,32.32
2023-12-18T02:29:55.170Z,32.36
2023-12-18T02:30:58.833Z,32.36
2023-12-18T02:32:03.973Z,32.36
2023-12-18T02:33:07.743Z,32.34
2023-12-18T02:34:11.670Z,32.38
2023-12-18T02:35:15.217Z,32.35
2023-12-18T02:36:18.994Z,32.35
2023-12-18T02:37:22.677Z,32.35
2023-12-18T02:38:26.001Z,32.29
2023-12-18T02:39:29.299Z,32.31
2023-12-18T02:40:32.656Z,32.4
2023-12-18T02:41:36.105Z,32.41
2023-12-18T02:42:39.655Z,32.42
2023-12-18T02:43:43.019Z,32.47
2023-12-18T02:44:48.267Z,32.46
2023-12-18T02:45:51.502Z,32.44
2023-12-18T02:46:54.897Z,32.44
2023-12-18T02:47:58.271Z,32.4
2023-12-18T02:49:01.896Z,32.45
2023-12-18T02:50:05.329Z,32.5
2023-12-18T02:51:08.682Z,32.47
2023-12-18T02:52:12.061Z,32.5
2023-12-18T02:53:15.305Z,32.5
2023-12-18T02:54:18.630Z,32.46
2023-12-18T02:55:22.107Z,32.49
2023-12-18T02:56:25.390Z,32.5
2023-12-18T02:57:28.612Z,32.48
2023-12-18T02:58:32.052Z,32.5
2023-12-18T02:59:35.485Z,32.55
2023-12-18T03:00:38.891Z,32.57
2023-12-18T03:01:42.296Z,32.51
2023-12-18T03:02:45.601Z,32.51
2023-12-18T03:03:49.139Z,32.56
2023-12-18T03:04:52.661Z,32.55
2023-12-18T03:05:56.069Z,32.49
2023-12-18T03:06:59.256Z,32.48
2023-12-18T03:08:02.529Z,32.52
2023-12-18T03:09:05.987Z,32.55
2023-12-18T03:10:09.362Z,32.53
2023-12-18T03:11:12.563Z,32.53
2023-12-18T03:12:15.813Z,32.51
2023-12-18T03:13:19.226Z,32.52
2023-12-18T03:14:23.989Z,32.55
2023-12-18T03:15:27.189Z,32.53
2023-12-18T03:16:30.592Z,32.54
2023-12-18T03:17:33.905Z,32.55
2023-12-18T03:18:37.479Z,32.56
2023-12-18T03:19:41.661Z,32.57
2023-12-18T03:20:45.220Z,32.56
2023-12-18T03:21:48.622Z,32.54
2023-12-18T03:22:51.959Z,32.55
2023-12-18T03:23:55.266Z,32.55
2023-12-18T03:24:58.605Z,32.56
2023-12-18T03:26:02.911Z,32.53
2023-12-18T03:27:06.217Z,32.54
2023-12-18T03:28:11.003Z,32.56
2023-12-18T03:29:14.259Z,32.56
2023-12-18T03:30:17.704Z,32.58
2023-12-18T03:31:22.966Z,32.56
2023-12-18T03:32:26.189Z,32.56
2023-12-18T03:33:29.676Z,32.54
2023-12-18T03:34:33.707Z,32.56
2023-12-18T03:35:37.282Z,32.55
2023-12-18T03:36:40.604Z,32.53
2023-12-18T03:37:44.432Z,32.52
2023-12-18T03:38:49.523Z,32.54
2023-12-18T03:39:52.742Z,32.56
2023-12-18T03:40:56.068Z,32.58
2023-12-18T03:42:00.920Z,32.6
2023-12-18T03:43:04.130Z,32.6
2023-12-18T03:44:07.445Z,32.6
2023-12-18T03:45:10.842Z,32.62
2023-12-18T03:46:14.113Z,32.6
2023-12-18T03:47:17.431Z,32.57
2023-12-18T03:48:21.106Z,32.59
2023-12-18T03:49:26.504Z,32.58
2023-12-18T03:50:31.355Z,32.57
2023-12-18T03:51:34.578Z,32.55
2023-12-18T03:52:37.911Z,32.57
2023-12-18T03:53:41.148Z,32.59
2023-12-18T03:54:44.737Z,32.6
2023-12-18T03:55:48.235Z,32.59
2023-12-18T03:56:51.622Z,32.59
2023-12-18T03:57:56.660Z,32.61
2023-12-18T03:59:01.492Z,32.57
2023-12-18T04:00:06.341Z,32.53
2023-12-18T04:01:09.882Z,32.52
2023-12-18T04:02:13.163Z,32.56
2023-12-18T04:03:16.741Z,32.55
2023-12-18T04:04:20.387Z,32.58
2023-12-18T04:05:24.135Z,32.58
2023-12-18T04:06:29.110Z,32.6
2023-12-18T04:07:32.550Z,32.58
2023-12-18T04:08:35.770Z,32.63
2023-12-18T04:09:39.245Z,32.6
2023-12-18T04:10:42.889Z,32.61
2023-12-18T04:11:46.200Z,32.62
2023-12-18T04:12:49.638Z,32.63
2023-12-18T04:13:53.018Z,32.61
2023-12-18T04:14:56.301Z,32.59
2023-12-18T04:16:01.619Z,32.6
2023-12-18T04:17:04.845Z,32.61
2023-12-18T04:18:08.456Z,32.63
2023-12-18T04:19:12.358Z,32.62
2023-12-18T04:20:15.647Z,32.61
2023-12-18T04:21:19.269Z,32.62
2023-12-18T04:22:22.602Z,32.62
2023-12-18T04:23:25.806Z,32.62
2023-12-18T04:24:29.065Z,32.57
2023-12-18T04:25:32.461Z,32.59
2023-12-18T04:26:35.750Z,32.62
2023-12-18T04:27:39.258Z,32.6
2023-12-18T04:28:43.040Z,32.58
2023-12-18T04:29:47.836Z,32.56
2023-12-18T04:30:51.234Z,32.54
2023-12-18T04:31:54.731Z,32.55
2023-12-18T04:32:58.226Z,32.59
2023-12-18T04:34:01.836Z,32.58
2023-12-18T04:35:05.464Z,32.58
2023-12-18T04:36:08.875Z,32.59
2023-12-18T04:37:12.378Z,32.61
2023-12-18T04:38:15.775Z,32.61
2023-12-18T04:39:20.650Z,32.63
2023-12-18T04:40:23.868Z,32.61
2023-12-18T04:41:27.056Z,32.59
2023-12-18T04:42:30.383Z,32.6
2023-12-18T04:43:34.560Z,32.59
2023-12-18T04:44:37.893Z,32.63
2023-12-18T04:45:41.324Z,32.61
2023-12-18T04:46:44.695Z,32.61
2023-12-18T04:47:48.149Z,32.62
2023-12-18T04:48:51.887Z,32.59
2023-12-18T04:49:55.720Z,32.61
2023-12-18T04:50:59.204Z,32.62
2023-12-18T04:52:02.705Z,32.61
2023-12-18T04:53:06.044Z,32.6
2023-12-18T04:54:09.421Z,32.6
2023-12-18T04:55:14.223Z,32.59
2023-12-18T04:56:18.972Z,32.54
2023-12-18T04:57:22.562Z,32.52
2023-12-18T04:58:25.864Z,32.57
2023-12-18T04:59:29.094Z,32.59
2023-12-18T05:00:32.470Z,32.59
2023-12-18T05:01:36.019Z,32.59
2023-12-18T05:02:40.033Z,32.6
2023-12-18T05:03:44.146Z,32.55
2023-12-18T05:04:47.794Z,32.53
2023-12-18T05:05:51.406Z,32.54
2023-12-18T05:06:54.799Z,32.56
2023-12-18T05:07:58.074Z,32.54
2023-12-18T05:09:01.301Z,32.54
2023-12-18T05:10:04.583Z,32.6
2023-12-18T05:11:07.831Z,32.56
2023-12-18T05:12:11.018Z,32.61
2023-12-18T05:13:14.327Z,32.63
2023-12-18T05:14:19.118Z,32.64
2023-12-18T05:15:22.558Z,32.62
2023-12-18T05:16:25.761Z,32.56
2023-12-18T05:17:29.055Z,32.56
2023-12-18T05:18:32.659Z,32.58
2023-12-18T05:19:37.822Z,32.6
2023-12-18T05:20:41.193Z,32.59
2023-12-18T05:21:44.560Z,32.58
2023-12-18T05:22:48.029Z,32.58
2023-12-18T05:23:51.327Z,32.61
2023-12-18T05:24:54.581Z,32.6
2023-12-18T05:25:59.357Z,32.6
2023-12-18T05:27:02.634Z,32.54
2023-12-18T05:28:05.879Z,32.54
2023-12-18T05:29:09.183Z,32.54
2023-12-18T05:30:12.823Z,32.56
2023-12-18T05:31:16.530Z,32.57
2023-12-18T05:32:20.156Z,32.58
2023-12-18T05:33:23.769Z,32.59
2023-12-18T05:34:31.119Z,32.55
2023-12-18T05:35:34.556Z,32.53
2023-12-18T05:36:37.977Z,32.51
2023-12-18T05:37:41.374Z,32.55
2023-12-18T05:38:44.734Z,32.56
2023-12-18T05:39:48.144Z,32.56
2023-12-18T05:40:51.617Z,32.56
2023-12-18T05:41:54.947Z,32.56
2023-12-18T05:42:58.295Z,32.54
2023-12-18T05:44:01.677Z,32.56
2023-12-18T05:45:04.946Z,32.57
2023-12-18T05:46:08.352Z,32.58
2023-12-18T05:47:11.575Z,32.58
2023-12-18T05:48:15.135Z,32.54
2023-12-18T05:49:19.011Z,32.56
2023-12-18T05:50:22.447Z,32.56
2023-12-18T05:51:26.012Z,32.56
2023-12-18T05:52:29.323Z,32.56
2023-12-18T05:53:32.598Z,32.46
2023-12-18T05:54:35.923Z,32.54
2023-12-18T05:55:39.382Z,32.55
2023-12-18T05:56:42.680Z,32.5
2023-12-18T05:57:47.714Z,32.47
2023-12-18T05:58:51.026Z,32.47
2023-12-18T05:59:54.297Z,32.44
2023-12-18T06:01:03.033Z,32.43
2023-12-18T06:02:06.571Z,32.36
2023-12-18T06:03:09.952Z,32.31
2023-12-18T06:04:13.603Z,32.34
2023-12-18T06:05:17.073Z,32.35
2023-12-18T06:06:20.528Z,32.34
2023-12-18T06:07:23.998Z,32.31
2023-12-18T06:08:27.214Z,32.33
2023-12-18T06:09:30.566Z,32.35
2023-12-18T06:10:33.979Z,32.33
2023-12-18T06:11:37.306Z,32.3
2023-12-18T06:12:41.213Z,32.28
2023-12-18T06:13:46.740Z,32.23
2023-12-18T06:14:49.941Z,32.26
2023-12-18T06:15:53.336Z,32.25
2023-12-18T06:16:56.812Z,32.26
2023-12-18T06:18:01.800Z,32.31
2023-12-18T06:19:05.389Z,32.06
2023-12-18T06:20:08.926Z,31.34
2023-12-18T06:21:12.213Z,30.75
2023-12-18T06:22:15.544Z,30.41
2023-12-18T06:23:18.778Z,30.13
2023-12-18T06:24:22.140Z,30.05
2023-12-18T06:25:25.394Z,29.97
2023-12-18T06:26:28.760Z,29.7
2023-12-18T06:27:32.160Z,29.56
2023-12-18T06:28:35.565Z,29.47
2023-12-18T06:29:38.869Z,29.32
2023-12-18T06:30:42.247Z,29.3
2023-12-18T06:31:45.989Z,29.23
2023-12-18T06:32:50.274Z,29
2023-12-18T06:33:54.146Z,29
2023-12-18T06:34:57.783Z,28.88
2023-12-18T06:36:01.285Z,28.76
2023-12-18T06:37:04.654Z,28.59
2023-12-18T06:38:07.954Z,28.46
2023-12-18T06:39:11.016Z,28.36
2023-12-18T06:40:14.271Z,28.37
2023-12-18T06:41:17.579Z,28.29
2023-12-18T06:42:20.952Z,28.11
2023-12-18T06:43:24.353Z,28.07
2023-12-18T06:44:27.677Z,27.82
2023-12-18T06:45:32.523Z,27.7
2023-12-18T06:46:35.911Z,27.78
2023-12-18T06:47:39.251Z,27.86
2023-12-18T06:48:42.985Z,27.7
2023-12-18T06:49:47.337Z,27.77
2023-12-18T06:50:50.750Z,27.68
2023-12-18T06:51:54.122Z,27.62
2023-12-18T06:52:57.508Z,27.67
2023-12-18T06:54:00.868Z,27.7
2023-12-18T06:55:04.234Z,27.66
2023-12-18T06:56:08.988Z,27.73
2023-12-18T06:57:13.837Z,27.67
2023-12-18T06:58:17.245Z,27.67
2023-12-18T06:59:20.513Z,27.6
2023-12-18T07:00:35.338Z,27.61
2023-12-18T07:01:36.958Z,27.4
2023-12-18T07:02:42.228Z,27.38
2023-12-18T07:03:46.197Z,27.41
2023-12-18T07:04:49.748Z,27.34
2023-12-18T07:05:53.181Z,27.28
2023-12-18T07:06:56.475Z,27.13
2023-12-18T07:07:59.809Z,27
2023-12-18T07:09:04.624Z,27.09
2023-12-18T07:10:08.236Z,27
2023-12-18T07:11:11.418Z,26.95
2023-12-18T07:12:14.736Z,26.85
2023-12-18T07:13:19.662Z,26.84
2023-12-18T07:14:22.937Z,26.77
2023-12-18T07:15:26.892Z,26.55
2023-12-18T07:16:30.589Z,26.78
2023-12-18T07:17:35.506Z,26.71
2023-12-18T07:18:39.032Z,26.67
2023-12-18T07:19:42.589Z,26.67
2023-12-18T07:20:45.842Z,26.64
2023-12-18T07:21:50.339Z,26.63
2023-12-18T07:22:55.395Z,26.65
2023-12-18T07:23:58.686Z,26.62
2023-12-18T07:25:01.945Z,26.57
2023-12-18T07:26:05.152Z,26.57
2023-12-18T07:27:08.478Z,26.8
2023-12-18T07:28:11.762Z,26.62
2023-12-18T07:29:15.008Z,26.54
2023-12-18T07:30:18.520Z,26.5
2023-12-18T07:31:22.155Z,26.56
2023-12-18T07:32:25.388Z,26.48
2023-12-18T07:33:28.840Z,26.46
2023-12-18T07:34:32.560Z,26.42
2023-12-18T07:35:36.086Z,26.4
2023-12-18T07:36:39.417Z,26.39
2023-12-18T07:37:42.713Z,26.3
2023-12-18T07:38:48.208Z,26.28
2023-12-18T07:39:53.005Z,26.25
2023-12-18T07:40:56.372Z,26.22
2023-12-18T07:41:59.659Z,26.13
2023-12-18T07:43:02.883Z,26.14
2023-12-18T07:44:06.248Z,26.14
2023-12-18T07:45:09.574Z,26.12
2023-12-18T07:46:12.877Z,26.1
2023-12-18T07:47:16.071Z,26.26
2023-12-18T07:48:19.619Z,26.18
2023-12-18T07:49:23.433Z,26.18
2023-12-18T07:50:26.745Z,26.12
2023-12-18T07:51:30.117Z,26.11
2023-12-18T07:52:33.430Z,26.1
2023-12-18T07:53:36.684Z,26.19
2023-12-18T07:54:40.154Z,26.18
2023-12-18T07:55:43.607Z,26.23
2023-12-18T07:56:48.365Z,26.26
2023-12-18T07:57:51.627Z,26.18
2023-12-18T07:58:55.023Z,26.19
2023-12-18T07:59:58.322Z,26.24
2023-12-18T08:01:03.293Z,26.2
2023-12-18T08:02:06.764Z,26.17
2023-12-18T08:03:10.147Z,26.1
2023-12-18T08:04:13.562Z,26.16
2023-12-18T08:05:17.159Z,26.25
2023-12-18T08:06:20.566Z,26.15
2023-12-18T08:07:23.832Z,26.18
2023-12-18T08:08:27.036Z,26.19
2023-12-18T08:09:30.957Z,26.18
2023-12-18T08:10:34.529Z,26.32
2023-12-18T08:11:39.407Z,26.25
2023-12-18T08:12:43.520Z,26.21
2023-12-18T08:13:47.308Z,26.2
2023-12-18T08:14:50.620Z,26.24
2023-12-18T08:15:53.870Z,26.27
2023-12-18T08:16:57.068Z,26.31
2023-12-18T08:18:00.641Z,26.3
2023-12-18T08:19:04.504Z,26.27
2023-12-18T08:20:08.165Z,26.25
2023-12-18T08:21:12.869Z,26.27
2023-12-18T08:22:16.241Z,26.22
2023-12-18T08:23:19.503Z,26.23
2023-12-18T08:24:22.877Z,26.23
2023-12-18T08:25:26.098Z,26.14
2023-12-18T08:26:30.236Z,26.13
2023-12-18T08:27:33.799Z,26.13
2023-12-18T08:28:37.284Z,26.09
2023-12-18T08:29:45.124Z,26.11
2023-12-18T08:30:48.485Z,26.11
2023-12-18T08:31:51.927Z,26.11
2023-12-18T08:32:55.362Z,26.14
2023-12-18T08:34:00.604Z,26.15
2023-12-18T08:35:04.085Z,26.11
2023-12-18T08:36:07.478Z,26.15
2023-12-18T08:37:10.712Z,26.12
2023-12-18T08:38:14.012Z,26.13
2023-12-18T08:39:17.286Z,26.15
2023-12-18T08:40:20.710Z,26.14
2023-12-18T08:41:23.950Z,26.11
2023-12-18T08:42:28.263Z,26.14
2023-12-18T08:43:31.570Z,26.18
2023-12-18T08:44:34.808Z,26.14
2023-12-18T08:45:38.215Z,26.22
2023-12-18T08:46:41.563Z,26.27
2023-12-18T08:47:45.012Z,26.23
2023-12-18T08:48:50.240Z,26.23
2023-12-18T08:49:53.641Z,26.37
2023-12-18T08:50:56.996Z,26.45
2023-12-18T08:52:00.499Z,26.46
2023-12-18T08:53:04.050Z,26.44
2023-12-18T08:54:07.457Z,26.42
2023-12-18T08:55:10.794Z,26.5
2023-12-18T08:56:14.051Z,26.55
2023-12-18T08:57:17.373Z,26.53
2023-12-18T08:58:20.867Z,26.5
2023-12-18T08:59:25.742Z,26.52
2023-12-18T09:00:29.135Z,26.51
2023-12-18T09:01:32.890Z,26.5
2023-12-18T09:02:36.299Z,26.55
2023-12-18T09:03:39.779Z,26.55
2023-12-18T09:04:43.345Z,26.5
2023-12-18T09:05:48.259Z,26.52
2023-12-18T09:06:51.576Z,26.56
2023-12-18T09:07:54.950Z,26.51
2023-12-18T09:08:58.255Z,26.54
2023-12-18T09:10:01.552Z,26.52
2023-12-18T09:11:04.909Z,26.43
2023-12-18T09:12:08.498Z,26.47
2023-12-18T09:13:11.799Z,26.45
2023-12-18T09:14:15.097Z,26.44
2023-12-18T09:15:18.552Z,26.45
2023-12-18T09:16:21.941Z,26.41
2023-12-18T09:17:25.211Z,26.43
2023-12-18T09:18:28.659Z,26.44
2023-12-18T09:19:32.701Z,26.37
2023-12-18T09:20:36.251Z,26.42
2023-12-18T09:21:39.588Z,26.34
2023-12-18T09:22:43.300Z,26.32
2023-12-18T09:23:47.173Z,26.32
2023-12-18T09:24:50.563Z,26.36
2023-12-18T09:25:53.978Z,26.25
2023-12-18T09:26:57.207Z,26.28
2023-12-18T09:28:00.541Z,26.26
2023-12-18T09:29:04.000Z,26.18
2023-12-18T09:30:10.953Z,26.16
2023-12-18T09:31:15.036Z,26.06
2023-12-18T09:32:18.590Z,26.09
2023-12-18T09:33:22.261Z,26.07
2023-12-18T09:34:25.872Z,26.06
2023-12-18T09:35:30.779Z,25.99
2023-12-18T09:36:34.094Z,25.92
2023-12-18T09:37:37.524Z,25.94
2023-12-18T09:38:41.012Z,25.9
2023-12-18T09:39:44.545Z,25.91
2023-12-18T09:40:48.002Z,25.92
2023-12-18T09:41:51.193Z,25.9
2023-12-18T09:42:54.615Z,25.96
2023-12-18T09:43:58.199Z,25.97
2023-12-18T09:45:01.505Z,25.91
2023-12-18T09:46:07.414Z,26.1
2023-12-18T09:47:10.696Z,26.18
2023-12-18T09:48:19.053Z,26.19
2023-12-18T09:49:23.457Z,26.24
2023-12-18T09:50:28.327Z,26.32
2023-12-18T09:51:31.718Z,26.3
2023-12-18T09:52:35.058Z,26.29
2023-12-18T09:53:38.289Z,26.3
2023-12-18T09:54:41.567Z,26.37
2023-12-18T09:55:44.876Z,26.59
2023-12-18T09:56:48.177Z,26.44
2023-12-18T09:57:51.546Z,26.52
2023-12-18T09:58:54.948Z,26.42
2023-12-18T09:59:58.254Z,26.47
2023-12-18T10:01:03.183Z,26.64
2023-12-18T10:02:06.574Z,26.82
2023-12-18T10:03:10.174Z,26.63
2023-12-18T10:04:13.984Z,26.76
2023-12-18T10:05:17.453Z,26.82
2023-12-18T10:06:20.959Z,26.74
2023-12-18T10:07:24.208Z,26.74
2023-12-18T10:08:27.507Z,26.76
2023-12-18T10:09:30.772Z,26.58
2023-12-18T10:10:34.155Z,26.61
2023-12-18T10:11:39.063Z,26.57
2023-12-18T10:12:42.820Z,26.56
2023-12-18T10:13:48.040Z,26.48
2023-12-18T10:14:51.286Z,26.5
2023-12-18T10:15:54.656Z,26.42
2023-12-18T10:16:58.068Z,26.39
2023-12-18T10:18:01.447Z,26.33
2023-12-18T10:19:05.076Z,26.27
2023-12-18T10:20:08.913Z,26.28
2023-12-18T10:21:12.353Z,26.3
2023-12-18T10:22:15.703Z,26.27
2023-12-18T10:23:19.014Z,26.2
2023-12-18T10:24:22.365Z,26.19
2023-12-18T10:25:25.609Z,26.16
2023-12-18T10:26:33.814Z,26.08
2023-12-18T10:27:37.084Z,26.04
2023-12-18T10:28:40.313Z,25.99
2023-12-18T10:29:43.649Z,26.11
2023-12-18T10:30:48.638Z,26.08
2023-12-18T10:31:52.243Z,26.14
2023-12-18T10:32:57.248Z,26.08
2023-12-18T10:34:00.833Z,25.96
2023-12-18T10:35:04.510Z,25.92
2023-12-18T10:36:07.923Z,25.86
2023-12-18T10:37:11.168Z,25.83
2023-12-18T10:38:14.559Z,25.83
2023-12-18T10:39:17.880Z,25.84
2023-12-18T10:40:21.088Z,25.88
2023-12-18T10:41:24.245Z,25.9
2023-12-18T10:42:27.575Z,25.9
2023-12-18T10:43:30.976Z,26.11
2023-12-18T10:44:34.269Z,26
2023-12-18T10:45:38.638Z,26.12
2023-12-18T10:46:43.640Z,26.19
2023-12-18T10:47:46.921Z,26.02
2023-12-18T10:48:50.423Z,26.06
2023-12-18T10:49:59.705Z,26.07
2023-12-18T10:51:04.062Z,26
2023-12-18T10:52:07.322Z,25.9
2023-12-18T10:53:10.605Z,25.92
2023-12-18T10:54:13.890Z,26.01
2023-12-18T10:55:17.226Z,26.01
2023-12-18T10:56:20.567Z,26.01
2023-12-18T10:57:23.862Z,25.99
2023-12-18T10:58:28.603Z,26.01
2023-12-18T10:59:31.866Z,26
2023-12-18T11:00:35.321Z,25.99
2023-12-18T11:01:40.241Z,25.97
2023-12-18T11:02:45.190Z,25.99
2023-12-18T11:03:48.700Z,25.94
2023-12-18T11:04:52.304Z,25.95
2023-12-18T11:05:55.801Z,25.87
2023-12-18T11:07:00.704Z,25.86
2023-12-18T11:08:05.558Z,25.84
2023-12-18T11:09:08.794Z,25.8
2023-12-18T11:10:13.519Z,25.81
2023-12-18T11:11:16.908Z,25.77
2023-12-18T11:12:20.271Z,25.79
2023-12-18T11:13:23.503Z,25.81
2023-12-18T11:14:26.874Z,25.82
2023-12-18T11:15:30.274Z,25.77
2023-12-18T11:16:33.757Z,25.72
2023-12-18T11:17:37.226Z,25.73
2023-12-18T11:18:41.198Z,25.91
2023-12-18T11:19:45.135Z,25.88
2023-12-18T11:20:48.685Z,25.83
2023-12-18T11:21:52.111Z,25.84
2023-12-18T11:22:55.604Z,25.84
2023-12-18T11:24:04.942Z,25.78
2023-12-18T11:25:13.099Z,25.71
2023-12-18T11:26:17.763Z,25.73
2023-12-18T11:27:21.039Z,25.88
2023-12-18T11:28:24.290Z,26
2023-12-18T11:29:29.042Z,26
2023-12-18T11:30:32.513Z,26.26
2023-12-18T11:31:36.116Z,26.07
2023-12-18T11:32:40.083Z,26.01
2023-12-18T11:33:52.426Z,26.07
2023-12-18T11:34:58.532Z,25.91
2023-12-18T11:36:01.979Z,25.91
2023-12-18T11:37:05.300Z,25.75
2023-12-18T11:38:08.700Z,26.06
2023-12-18T11:39:12.030Z,26.23
2023-12-18T11:40:16.799Z,26.05
2023-12-18T11:41:20.032Z,26.18
2023-12-18T11:42:23.345Z,26.1
2023-12-18T11:43:26.627Z,26.17
2023-12-18T11:44:33.773Z,26.11
2023-12-18T11:45:37.733Z,26.07
2023-12-18T11:46:41.038Z,26.08
2023-12-18T11:47:44.408Z,26.2
2023-12-18T11:48:48.557Z,26.4
2023-12-18T11:49:52.419Z,26.42
2023-12-18T11:50:56.126Z,26.3
2023-12-18T11:51:59.607Z,26.57
2023-12-18T11:53:02.969Z,26.51
2023-12-18T11:54:06.324Z,26.59
2023-12-18T11:55:09.634Z,26.55
2023-12-18T11:56:13.093Z,26.46
2023-12-18T11:57:16.644Z,26.42
2023-12-18T11:58:20.043Z,26.2
2023-12-18T11:59:23.384Z,26.31
2023-12-18T12:00:26.832Z,26.46
2023-12-18T12:01:30.290Z,26.53
2023-12-18T12:02:34.861Z,26.58
2023-12-18T12:03:38.428Z,26.45
2023-12-18T12:04:44.256Z,26.36
2023-12-18T12:05:47.636Z,26.4
2023-12-18T12:06:50.958Z,26.33
2023-12-18T12:07:56.395Z,26.43
2023-12-18T12:08:59.743Z,26.39
2023-12-18T12:10:03.056Z,26.36
2023-12-18T12:11:06.547Z,26.6
2023-12-18T12:12:09.820Z,26.58
2023-12-18T12:13:13.017Z,26.6
2023-12-18T12:14:16.269Z,26.52
2023-12-18T12:15:19.763Z,26.68
2023-12-18T12:16:23.381Z,26.71
2023-12-18T12:17:26.827Z,26.58
2023-12-18T12:18:30.527Z,26.55
2023-12-18T12:19:34.649Z,26.47
2023-12-18T12:20:38.582Z,26.85
2023-12-18T12:21:47.735Z,27.19
2023-12-18T12:22:51.697Z,27.07
2023-12-18T12:23:54.935Z,27.02
2023-12-18T12:24:59.834Z,27.1
2023-12-18T12:26:03.593Z,26.99
2023-12-18T12:27:06.866Z,26.82
2023-12-18T12:28:10.136Z,26.73
2023-12-18T12:29:13.581Z,26.6
2023-12-18T12:30:17.040Z,26.51
2023-12-18T12:31:20.875Z,26.58
2023-12-18T12:32:25.960Z,26.67
2023-12-18T12:33:30.005Z,26.46
2023-12-18T12:34:35.142Z,26.43
2023-12-18T12:35:38.503Z,26.32
2023-12-18T12:36:41.877Z,26.28
2023-12-18T12:37:46.735Z,26.25
2023-12-18T12:38:50.017Z,26.29
2023-12-18T12:39:53.407Z,26.26
2023-12-18T12:40:58.333Z,26.23
2023-12-18T12:42:01.653Z,26.36
2023-12-18T12:43:04.919Z,26.4
2023-12-18T12:44:08.203Z,26.37
2023-12-18T12:45:11.610Z,26.26
2023-12-18T12:46:22.859Z,26.22
2023-12-18T12:47:27.867Z,26.23
2023-12-18T12:48:35.336Z,26.12
2023-12-18T12:49:40.471Z,26.06
2023-12-18T12:50:43.883Z,26
2023-12-18T12:51:47.209Z,26.06
2023-12-18T12:52:50.545Z,26.6
2023-12-18T12:53:53.936Z,26.4
2023-12-18T12:54:57.296Z,26.2
2023-12-18T12:56:00.837Z,26.29
2023-12-18T12:57:04.233Z,26.41
2023-12-18T12:58:07.478Z,26.33
2023-12-18T12:59:12.769Z,26.27
2023-12-18T13:00:16.020Z,26.21
2023-12-18T13:01:19.551Z,26.14
2023-12-18T13:02:22.841Z,26.21
2023-12-18T13:03:26.228Z,26.13
2023-12-18T13:04:30.152Z,26.23
2023-12-18T13:05:33.886Z,26.17
2023-12-18T13:06:37.380Z,26.26
2023-12-18T13:07:42.897Z,26.27
2023-12-18T13:08:46.766Z,26.27
2023-12-18T13:09:50.147Z,26.21
2023-12-18T13:10:53.582Z,26.29
2023-12-18T13:11:56.856Z,26.3
2023-12-18T13:13:00.324Z,26.27
2023-12-18T13:14:11.657Z,26.21
2023-12-18T13:15:16.793Z,26.17
2023-12-18T13:16:20.131Z,26.25
2023-12-18T13:17:23.511Z,26.13
2023-12-18T13:18:29.172Z,26.22
2023-12-18T13:19:33.217Z,26.24
2023-12-18T13:20:37.138Z,26.26
2023-12-18T13:21:40.877Z,26.15
2023-12-18T13:22:45.422Z,26.18
2023-12-18T13:23:48.611Z,26.13
2023-12-18T13:24:52.188Z,26.08
2023-12-18T13:25:55.681Z,26.1
2023-12-18T13:26:59.002Z,26.15
2023-12-18T13:28:02.452Z,26.3
2023-12-18T13:29:07.380Z,26.28
2023-12-18T13:30:10.724Z,26.15
2023-12-18T13:31:14.082Z,26.06
2023-12-18T13:32:17.747Z,26.2
2023-12-18T13:33:21.383Z,26.2
2023-12-18T13:34:24.751Z,26.2
2023-12-18T13:35:28.371Z,26.1
2023-12-18T13:36:32.008Z,26.23
2023-12-18T13:37:35.325Z,26.2
2023-12-18T13:38:38.567Z,26.13
2023-12-18T13:39:41.899Z,26.02
2023-12-18T13:40:45.289Z,26.05
2023-12-18T13:41:48.550Z,25.98
2023-12-18T13:42:52.208Z,25.98
2023-12-18T13:43:55.695Z,25.95
2023-12-18T13:44:58.947Z,25.97